sensor_id;sensor_type;location;lat;lon;timestamp;P1;durP1;ratioP1;P2;durP2;ratioP2
52590;SDS011;38483;42.620;25.394;2022-10-16T00:01:29;9.57;;;6.90;;
52590;SDS011;38483;42.620;25.394;2022-10-16T00:03:58;9.23;;;7.23;;
52590;SDS011;38483;42.620;25.394;2022-10-16T00:06:26;12.20;;;7.47;;
52590;SDS011;38483;42.620;25.394;2022-10-16T00:08:54;10.30;;;7.37;;
52590;SDS011;38483;42.620;25.394;2022-10-16T00:11:29;11.33;;;7.47;;
52590;SDS011;38483;42.620;25.394;2022-10-16T00:14:00;8.83;;;7.13;;
52590;SDS011;38483;42.620;25.394;2022-10-16T00:16:28;11.23;;;7.27;;
52590;SDS011;38483;42.620;25.394;2022-10-16T00:18:55;12.63;;;7.87;;
52590;SDS011;38483;42.620;25.394;2022-10-16T00:21:25;9.80;;;6.87;;
52590;SDS011;38483;42.620;25.394;2022-10-16T00:24:12;13.93;;;7.33;;
52590;SDS011;38483;42.620;25.394;2022-10-16T00:26:39;9.73;;;7.07;;
52590;SDS011;38483;42.620;25.394;2022-10-16T00:29:07;10.33;;;7.40;;
52590;SDS011;38483;42.620;25.394;2022-10-16T00:31:35;12.37;;;7.53;;
52590;SDS011;38483;42.620;25.394;2022-10-16T00:34:02;10.30;;;7.20;;
52590;SDS011;38483;42.620;25.394;2022-10-16T00:36:29;11.47;;;7.10;;
52590;SDS011;38483;42.620;25.394;2022-10-16T00:38:59;10.50;;;6.93;;
52590;SDS011;38483;42.620;25.394;2022-10-16T00:41:28;10.03;;;7.33;;
52590;SDS011;38483;42.620;25.394;2022-10-16T00:43:56;10.10;;;6.20;;
52590;SDS011;38483;42.620;25.394;2022-10-16T00:49:09;13.77;;;6.57;;
52590;SDS011;38483;42.620;25.394;2022-10-16T00:51:42;12.47;;;6.90;;
52590;SDS011;38483;42.620;25.394;2022-10-16T00:54:14;11.80;;;7.10;;
52590;SDS011;38483;42.620;25.394;2022-10-16T00:56:44;13.43;;;6.93;;
52590;SDS011;38483;42.620;25.394;2022-10-16T00:59:23;12.27;;;7.00;;
52590;SDS011;38483;42.620;25.394;2022-10-16T01:01:53;9.57;;;6.67;;
52590;SDS011;38483;42.620;25.394;2022-10-16T01:04:20;15.33;;;7.73;;
52590;SDS011;38483;42.620;25.394;2022-10-16T01:12:48;9.73;;;6.10;;
52590;SDS011;38483;42.620;25.394;2022-10-16T01:15:29;9.13;;;5.93;;
52590;SDS011;38483;42.620;25.394;2022-10-16T01:20:48;10.70;;;6.13;;
52590;SDS011;38483;42.620;25.394;2022-10-16T01:29:18;7.93;;;5.83;;
52590;SDS011;38483;42.620;25.394;2022-10-16T01:31:56;9.30;;;6.87;;
52590;SDS011;38483;42.620;25.394;2022-10-16T01:34:33;7.63;;;6.07;;
52590;SDS011;38483;42.620;25.394;2022-10-16T01:37:06;8.17;;;6.00;;
52590;SDS011;38483;42.620;25.394;2022-10-16T01:39:38;9.07;;;6.87;;
52590;SDS011;38483;42.620;25.394;2022-10-16T01:42:12;8.90;;;6.90;;
52590;SDS011;38483;42.620;25.394;2022-10-16T01:44:43;12.70;;;6.80;;
52590;SDS011;38483;42.620;25.394;2022-10-16T01:47:13;11.37;;;6.47;;
52590;SDS011;38483;42.620;25.394;2022-10-16T01:49:42;7.77;;;5.80;;
52590;SDS011;38483;42.620;25.394;2022-10-16T01:52:13;9.93;;;6.70;;
52590;SDS011;38483;42.620;25.394;2022-10-16T01:54:44;9.23;;;6.57;;
52590;SDS011;38483;42.620;25.394;2022-10-16T01:57:14;8.87;;;6.33;;
52590;SDS011;38483;42.620;25.394;2022-10-16T01:59:46;10.17;;;6.37;;
52590;SDS011;38483;42.620;25.394;2022-10-16T02:02:17;9.47;;;7.30;;
52590;SDS011;38483;42.620;25.394;2022-10-16T02:04:47;9.00;;;6.80;;
52590;SDS011;38483;42.620;25.394;2022-10-16T02:07:18;11.77;;;7.10;;
52590;SDS011;38483;42.620;25.394;2022-10-16T02:09:45;9.30;;;6.57;;
52590;SDS011;38483;42.620;25.394;2022-10-16T02:12:25;10.37;;;7.43;;
52590;SDS011;38483;42.620;25.394;2022-10-16T02:14:55;12.73;;;8.77;;
52590;SDS011;38483;42.620;25.394;2022-10-16T02:17:22;9.27;;;7.80;;
52590;SDS011;38483;42.620;25.394;2022-10-16T02:19:49;12.40;;;8.40;;
52590;SDS011;38483;42.620;25.394;2022-10-16T02:23:02;15.93;;;9.03;;
52590;SDS011;38483;42.620;25.394;2022-10-16T02:25:15;13.43;;;8.63;;
52590;SDS011;38483;42.620;25.394;2022-10-16T02:33:00;11.67;;;8.53;;
52590;SDS011;38483;42.620;25.394;2022-10-16T02:35:29;13.20;;;8.90;;
52590;SDS011;38483;42.620;25.394;2022-10-16T02:37:57;12.67;;;9.17;;
52590;SDS011;38483;42.620;25.394;2022-10-16T02:40:25;13.90;;;8.47;;
52590;SDS011;38483;42.620;25.394;2022-10-16T02:42:54;11.07;;;8.43;;
52590;SDS011;38483;42.620;25.394;2022-10-16T02:45:22;10.90;;;7.80;;
52590;SDS011;38483;42.620;25.394;2022-10-16T02:47:50;10.03;;;8.03;;
52590;SDS011;38483;42.620;25.394;2022-10-16T02:50:17;11.13;;;8.63;;
52590;SDS011;38483;42.620;25.394;2022-10-16T02:52:44;9.03;;;8.13;;
52590;SDS011;38483;42.620;25.394;2022-10-16T02:55:11;16.10;;;8.70;;
52590;SDS011;38483;42.620;25.394;2022-10-16T02:57:38;10.57;;;7.80;;
52590;SDS011;38483;42.620;25.394;2022-10-16T03:00:08;13.50;;;8.33;;
52590;SDS011;38483;42.620;25.394;2022-10-16T03:02:36;13.53;;;8.83;;
52590;SDS011;38483;42.620;25.394;2022-10-16T03:05:04;9.57;;;7.50;;
52590;SDS011;38483;42.620;25.394;2022-10-16T03:07:32;9.50;;;7.93;;
52590;SDS011;38483;42.620;25.394;2022-10-16T03:09:59;10.17;;;7.13;;
52590;SDS011;38483;42.620;25.394;2022-10-16T03:12:29;11.43;;;8.07;;
52590;SDS011;38483;42.620;25.394;2022-10-16T03:14:56;10.23;;;7.60;;
52590;SDS011;38483;42.620;25.394;2022-10-16T03:17:24;13.00;;;7.30;;
52590;SDS011;38483;42.620;25.394;2022-10-16T03:19:51;12.57;;;7.90;;
52590;SDS011;38483;42.620;25.394;2022-10-16T03:22:18;10.20;;;7.23;;
52590;SDS011;38483;42.620;25.394;2022-10-16T03:24:45;12.23;;;8.67;;
52590;SDS011;38483;42.620;25.394;2022-10-16T03:27:12;10.93;;;7.70;;
52590;SDS011;38483;42.620;25.394;2022-10-16T03:29:40;12.57;;;8.57;;
52590;SDS011;38483;42.620;25.394;2022-10-16T03:32:07;9.83;;;8.83;;
52590;SDS011;38483;42.620;25.394;2022-10-16T03:34:34;9.63;;;7.30;;
52590;SDS011;38483;42.620;25.394;2022-10-16T03:37:00;9.67;;;7.77;;
52590;SDS011;38483;42.620;25.394;2022-10-16T03:39:29;10.63;;;8.27;;
52590;SDS011;38483;42.620;25.394;2022-10-16T03:41:56;10.97;;;7.20;;
52590;SDS011;38483;42.620;25.394;2022-10-16T03:44:23;10.10;;;7.80;;
52590;SDS011;38483;42.620;25.394;2022-10-16T03:46:50;10.53;;;7.67;;
52590;SDS011;38483;42.620;25.394;2022-10-16T03:49:17;10.77;;;7.83;;
52590;SDS011;38483;42.620;25.394;2022-10-16T03:51:45;11.07;;;7.27;;
52590;SDS011;38483;42.620;25.394;2022-10-16T03:54:12;12.30;;;8.23;;
52590;SDS011;38483;42.620;25.394;2022-10-16T03:56:39;9.50;;;8.00;;
52590;SDS011;38483;42.620;25.394;2022-10-16T03:59:08;11.77;;;7.63;;
52590;SDS011;38483;42.620;25.394;2022-10-16T04:01:34;9.23;;;7.40;;
52590;SDS011;38483;42.620;25.394;2022-10-16T04:04:01;7.80;;;6.40;;
52590;SDS011;38483;42.620;25.394;2022-10-16T04:06:28;9.70;;;7.03;;
52590;SDS011;38483;42.620;25.394;2022-10-16T04:08:55;10.83;;;7.17;;
52590;SDS011;38483;42.620;25.394;2022-10-16T04:11:22;8.17;;;6.70;;
52590;SDS011;38483;42.620;25.394;2022-10-16T04:13:49;9.57;;;6.40;;
52590;SDS011;38483;42.620;25.394;2022-10-16T04:16:16;9.13;;;6.73;;
52590;SDS011;38483;42.620;25.394;2022-10-16T04:18:43;8.70;;;6.47;;
52590;SDS011;38483;42.620;25.394;2022-10-16T04:21:10;9.63;;;6.80;;
52590;SDS011;38483;42.620;25.394;2022-10-16T04:23:37;10.33;;;6.67;;
52590;SDS011;38483;42.620;25.394;2022-10-16T04:26:04;12.37;;;6.90;;
52590;SDS011;38483;42.620;25.394;2022-10-16T04:28:31;9.33;;;6.47;;
52590;SDS011;38483;42.620;25.394;2022-10-16T04:30:58;10.53;;;7.77;;
52590;SDS011;38483;42.620;25.394;2022-10-16T04:33:25;9.33;;;6.90;;
52590;SDS011;38483;42.620;25.394;2022-10-16T04:36:01;10.33;;;6.40;;
52590;SDS011;38483;42.620;25.394;2022-10-16T04:38:29;9.63;;;6.33;;
52590;SDS011;38483;42.620;25.394;2022-10-16T04:40:56;10.50;;;7.60;;
52590;SDS011;38483;42.620;25.394;2022-10-16T04:43:23;9.90;;;7.30;;
52590;SDS011;38483;42.620;25.394;2022-10-16T04:45:50;9.97;;;7.20;;
52590;SDS011;38483;42.620;25.394;2022-10-16T04:48:17;9.90;;;7.00;;
52590;SDS011;38483;42.620;25.394;2022-10-16T04:50:44;9.67;;;6.63;;
52590;SDS011;38483;42.620;25.394;2022-10-16T04:53:14;9.93;;;7.60;;
52590;SDS011;38483;42.620;25.394;2022-10-16T04:55:41;9.50;;;7.50;;
52590;SDS011;38483;42.620;25.394;2022-10-16T04:58:09;11.77;;;6.97;;
52590;SDS011;38483;42.620;25.394;2022-10-16T05:00:36;8.47;;;6.43;;
52590;SDS011;38483;42.620;25.394;2022-10-16T05:03:03;12.60;;;6.70;;
52590;SDS011;38483;42.620;25.394;2022-10-16T05:05:34;10.77;;;6.73;;
52590;SDS011;38483;42.620;25.394;2022-10-16T05:08:02;12.33;;;7.30;;
52590;SDS011;38483;42.620;25.394;2022-10-16T05:10:29;13.30;;;8.00;;
52590;SDS011;38483;42.620;25.394;2022-10-16T05:12:56;11.93;;;7.80;;
52590;SDS011;38483;42.620;25.394;2022-10-16T05:15:23;14.43;;;7.87;;
52590;SDS011;38483;42.620;25.394;2022-10-16T05:17:54;10.60;;;7.70;;
52590;SDS011;38483;42.620;25.394;2022-10-16T05:20:23;8.83;;;7.27;;
52590;SDS011;38483;42.620;25.394;2022-10-16T05:22:50;10.23;;;7.93;;
52590;SDS011;38483;42.620;25.394;2022-10-16T05:25:17;13.67;;;8.60;;
52590;SDS011;38483;42.620;25.394;2022-10-16T05:27:47;17.43;;;9.73;;
52590;SDS011;38483;42.620;25.394;2022-10-16T05:30:15;10.27;;;8.40;;
52590;SDS011;38483;42.620;25.394;2022-10-16T05:32:49;11.63;;;8.63;;
52590;SDS011;38483;42.620;25.394;2022-10-16T05:35:17;9.37;;;7.43;;
52590;SDS011;38483;42.620;25.394;2022-10-16T05:37:45;12.13;;;8.27;;
52590;SDS011;38483;42.620;25.394;2022-10-16T05:40:13;13.70;;;8.57;;
52590;SDS011;38483;42.620;25.394;2022-10-16T05:42:41;11.60;;;8.07;;
52590;SDS011;38483;42.620;25.394;2022-10-16T05:45:09;12.33;;;8.57;;
52590;SDS011;38483;42.620;25.394;2022-10-16T05:47:38;11.20;;;8.10;;
52590;SDS011;38483;42.620;25.394;2022-10-16T05:50:05;12.10;;;8.03;;
52590;SDS011;38483;42.620;25.394;2022-10-16T05:52:33;11.97;;;7.63;;
52590;SDS011;38483;42.620;25.394;2022-10-16T05:55:00;11.13;;;8.00;;
52590;SDS011;38483;42.620;25.394;2022-10-16T05:57:28;9.27;;;7.40;;
52590;SDS011;38483;42.620;25.394;2022-10-16T05:59:56;13.53;;;7.47;;
52590;SDS011;38483;42.620;25.394;2022-10-16T06:02:23;9.67;;;7.47;;
52590;SDS011;38483;42.620;25.394;2022-10-16T06:04:53;10.80;;;7.63;;
52590;SDS011;38483;42.620;25.394;2022-10-16T06:07:21;9.83;;;7.10;;
52590;SDS011;38483;42.620;25.394;2022-10-16T06:09:49;9.83;;;6.13;;
52590;SDS011;38483;42.620;25.394;2022-10-16T06:12:16;10.87;;;7.30;;
52590;SDS011;38483;42.620;25.394;2022-10-16T06:14:44;10.80;;;6.80;;
52590;SDS011;38483;42.620;25.394;2022-10-16T06:17:15;8.33;;;5.93;;
52590;SDS011;38483;42.620;25.394;2022-10-16T06:19:42;9.57;;;6.87;;
52590;SDS011;38483;42.620;25.394;2022-10-16T06:22:09;9.30;;;6.53;;
52590;SDS011;38483;42.620;25.394;2022-10-16T06:24:36;8.83;;;6.33;;
52590;SDS011;38483;42.620;25.394;2022-10-16T06:27:04;12.57;;;7.00;;
52590;SDS011;38483;42.620;25.394;2022-10-16T06:29:31;8.33;;;6.13;;
52590;SDS011;38483;42.620;25.394;2022-10-16T06:32:00;9.63;;;7.37;;
52590;SDS011;38483;42.620;25.394;2022-10-16T06:34:28;14.70;;;7.37;;
52590;SDS011;38483;42.620;25.394;2022-10-16T06:36:57;9.40;;;6.80;;
52590;SDS011;38483;42.620;25.394;2022-10-16T06:39:24;8.67;;;6.70;;
52590;SDS011;38483;42.620;25.394;2022-10-16T06:41:54;10.60;;;7.20;;
52590;SDS011;38483;42.620;25.394;2022-10-16T06:44:24;9.70;;;7.00;;
52590;SDS011;38483;42.620;25.394;2022-10-16T06:46:51;9.23;;;6.90;;
52590;SDS011;38483;42.620;25.394;2022-10-16T06:49:19;8.97;;;6.27;;
52590;SDS011;38483;42.620;25.394;2022-10-16T06:51:49;8.97;;;6.10;;
52590;SDS011;38483;42.620;25.394;2022-10-16T06:54:16;9.57;;;6.20;;
52590;SDS011;38483;42.620;25.394;2022-10-16T06:56:44;9.00;;;6.03;;
52590;SDS011;38483;42.620;25.394;2022-10-16T06:59:11;10.20;;;6.67;;
52590;SDS011;38483;42.620;25.394;2022-10-16T07:01:40;8.80;;;6.67;;
52590;SDS011;38483;42.620;25.394;2022-10-16T07:04:07;7.73;;;6.43;;
52590;SDS011;38483;42.620;25.394;2022-10-16T07:06:34;10.47;;;7.50;;
52590;SDS011;38483;42.620;25.394;2022-10-16T07:09:06;10.90;;;7.33;;
52590;SDS011;38483;42.620;25.394;2022-10-16T07:11:38;9.83;;;7.10;;
52590;SDS011;38483;42.620;25.394;2022-10-16T07:14:25;9.97;;;6.43;;
52590;SDS011;38483;42.620;25.394;2022-10-16T07:16:52;8.23;;;6.57;;
52590;SDS011;38483;42.620;25.394;2022-10-16T07:19:19;6.57;;;5.27;;
52590;SDS011;38483;42.620;25.394;2022-10-16T07:21:47;7.43;;;6.30;;
52590;SDS011;38483;42.620;25.394;2022-10-16T07:24:15;9.90;;;6.80;;
52590;SDS011;38483;42.620;25.394;2022-10-16T07:26:43;12.93;;;7.87;;
52590;SDS011;38483;42.620;25.394;2022-10-16T07:29:17;8.33;;;6.43;;
52590;SDS011;38483;42.620;25.394;2022-10-16T07:31:45;8.80;;;6.07;;
52590;SDS011;38483;42.620;25.394;2022-10-16T07:34:13;9.33;;;6.70;;
52590;SDS011;38483;42.620;25.394;2022-10-16T07:37:33;6.40;;;5.73;;
52590;SDS011;38483;42.620;25.394;2022-10-16T07:41:01;9.13;;;6.77;;
52590;SDS011;38483;42.620;25.394;2022-10-16T07:44:22;16.13;;;6.73;;
52590;SDS011;38483;42.620;25.394;2022-10-16T07:47:43;12.30;;;7.03;;
52590;SDS011;38483;42.620;25.394;2022-10-16T07:51:05;10.80;;;6.60;;
52590;SDS011;38483;42.620;25.394;2022-10-16T07:54:25;8.87;;;7.17;;
52590;SDS011;38483;42.620;25.394;2022-10-16T07:56:53;9.53;;;7.80;;
52590;SDS011;38483;42.620;25.394;2022-10-16T07:59:20;11.50;;;7.33;;
52590;SDS011;38483;42.620;25.394;2022-10-16T08:01:48;12.60;;;8.10;;
52590;SDS011;38483;42.620;25.394;2022-10-16T08:04:17;15.67;;;7.30;;
52590;SDS011;38483;42.620;25.394;2022-10-16T08:07:37;11.87;;;7.70;;
52590;SDS011;38483;42.620;25.394;2022-10-16T08:10:58;13.73;;;9.23;;
52590;SDS011;38483;42.620;25.394;2022-10-16T08:14:19;13.10;;;7.87;;
52590;SDS011;38483;42.620;25.394;2022-10-16T08:17:28;17.67;;;8.80;;
52590;SDS011;38483;42.620;25.394;2022-10-16T08:19:55;11.90;;;8.37;;
52590;SDS011;38483;42.620;25.394;2022-10-16T08:22:22;11.53;;;8.67;;
52590;SDS011;38483;42.620;25.394;2022-10-16T08:24:50;13.20;;;8.50;;
52590;SDS011;38483;42.620;25.394;2022-10-16T08:27:19;10.27;;;7.57;;
52590;SDS011;38483;42.620;25.394;2022-10-16T08:29:48;13.70;;;8.43;;
52590;SDS011;38483;42.620;25.394;2022-10-16T08:32:15;9.43;;;7.30;;
52590;SDS011;38483;42.620;25.394;2022-10-16T08:34:42;9.63;;;7.43;;
52590;SDS011;38483;42.620;25.394;2022-10-16T08:37:09;13.03;;;7.83;;
52590;SDS011;38483;42.620;25.394;2022-10-16T08:39:38;12.50;;;8.63;;
52590;SDS011;38483;42.620;25.394;2022-10-16T08:42:29;13.90;;;9.03;;
52590;SDS011;38483;42.620;25.394;2022-10-16T08:45:19;10.97;;;7.70;;
52590;SDS011;38483;42.620;25.394;2022-10-16T08:48:02;12.33;;;7.30;;
52590;SDS011;38483;42.620;25.394;2022-10-16T08:50:30;10.47;;;6.80;;
52590;SDS011;38483;42.620;25.394;2022-10-16T08:52:59;10.27;;;7.87;;
52590;SDS011;38483;42.620;25.394;2022-10-16T08:55:39;12.40;;;8.03;;
52590;SDS011;38483;42.620;25.394;2022-10-16T08:58:10;9.53;;;7.07;;
52590;SDS011;38483;42.620;25.394;2022-10-16T09:00:56;9.77;;;6.67;;
52590;SDS011;38483;42.620;25.394;2022-10-16T09:12:03;9.67;;;6.73;;
52590;SDS011;38483;42.620;25.394;2022-10-16T09:17:56;11.13;;;6.67;;
52590;SDS011;38483;42.620;25.394;2022-10-16T09:20:31;9.13;;;5.73;;
52590;SDS011;38483;42.620;25.394;2022-10-16T09:23:14;8.30;;;6.40;;
52590;SDS011;38483;42.620;25.394;2022-10-16T09:25:46;9.73;;;6.67;;
52590;SDS011;38483;42.620;25.394;2022-10-16T09:28:17;9.90;;;5.60;;
52590;SDS011;38483;42.620;25.394;2022-10-16T09:30:45;9.03;;;6.90;;
52590;SDS011;38483;42.620;25.394;2022-10-16T09:33:21;8.47;;;5.83;;
52590;SDS011;38483;42.620;25.394;2022-10-16T09:35:53;6.10;;;5.33;;
52590;SDS011;38483;42.620;25.394;2022-10-16T09:41:03;11.57;;;7.10;;
52590;SDS011;38483;42.620;25.394;2022-10-16T09:43:49;9.00;;;5.83;;
52590;SDS011;38483;42.620;25.394;2022-10-16T09:46:31;8.03;;;6.10;;
52590;SDS011;38483;42.620;25.394;2022-10-16T09:49:01;10.07;;;6.23;;
52590;SDS011;38483;42.620;25.394;2022-10-16T09:51:45;9.03;;;5.93;;
52590;SDS011;38483;42.620;25.394;2022-10-16T09:54:13;8.53;;;5.77;;
52590;SDS011;38483;42.620;25.394;2022-10-16T09:56:42;8.83;;;5.77;;
52590;SDS011;38483;42.620;25.394;2022-10-16T09:59:13;10.63;;;6.20;;
52590;SDS011;38483;42.620;25.394;2022-10-16T10:04:08;11.67;;;5.33;;
52590;SDS011;38483;42.620;25.394;2022-10-16T10:06:37;10.13;;;6.77;;
52590;SDS011;38483;42.620;25.394;2022-10-16T10:14:53;8.77;;;6.23;;
52590;SDS011;38483;42.620;25.394;2022-10-16T10:17:24;8.77;;;6.07;;
52590;SDS011;38483;42.620;25.394;2022-10-16T10:38:20;8.10;;;5.87;;
52590;SDS011;38483;42.620;25.394;2022-10-16T10:41:10;7.10;;;5.10;;
52590;SDS011;38483;42.620;25.394;2022-10-16T10:44:01;7.13;;;5.53;;
52590;SDS011;38483;42.620;25.394;2022-10-16T10:55:15;6.63;;;4.83;;
52590;SDS011;38483;42.620;25.394;2022-10-16T11:00:55;7.83;;;5.00;;
52590;SDS011;38483;42.620;25.394;2022-10-16T11:06:15;6.50;;;5.50;;
52590;SDS011;38483;42.620;25.394;2022-10-16T11:08:48;8.03;;;5.37;;
52590;SDS011;38483;42.620;25.394;2022-10-16T11:11:46;8.10;;;6.10;;
52590;SDS011;38483;42.620;25.394;2022-10-16T11:20:00;9.10;;;5.77;;
52590;SDS011;38483;42.620;25.394;2022-10-16T11:22:41;14.40;;;6.10;;
52590;SDS011;38483;42.620;25.394;2022-10-16T11:25:22;8.87;;;5.00;;
52590;SDS011;38483;42.620;25.394;2022-10-16T11:30:55;9.50;;;5.70;;
52590;SDS011;38483;42.620;25.394;2022-10-16T11:33:27;7.23;;;5.30;;
52590;SDS011;38483;42.620;25.394;2022-10-16T11:38:59;7.53;;;5.13;;
52590;SDS011;38483;42.620;25.394;2022-10-16T11:41:47;9.37;;;5.53;;
52590;SDS011;38483;42.620;25.394;2022-10-16T11:53:14;5.63;;;4.53;;
52590;SDS011;38483;42.620;25.394;2022-10-16T11:55:49;8.20;;;4.20;;
52590;SDS011;38483;42.620;25.394;2022-10-16T12:04:39;6.53;;;4.97;;
52590;SDS011;38483;42.620;25.394;2022-10-16T12:09:27;7.30;;;5.17;;
52590;SDS011;38483;42.620;25.394;2022-10-16T12:11:56;9.13;;;4.60;;
52590;SDS011;38483;42.620;25.394;2022-10-16T12:19:33;6.80;;;4.97;;
52590;SDS011;38483;42.620;25.394;2022-10-16T12:22:03;5.70;;;4.47;;
52590;SDS011;38483;42.620;25.394;2022-10-16T12:24:37;6.27;;;4.53;;
52590;SDS011;38483;42.620;25.394;2022-10-16T12:29:53;7.37;;;4.77;;
52590;SDS011;38483;42.620;25.394;2022-10-16T12:32:33;7.27;;;4.20;;
52590;SDS011;38483;42.620;25.394;2022-10-16T12:35:19;9.50;;;4.73;;
52590;SDS011;38483;42.620;25.394;2022-10-16T12:37:49;6.53;;;4.20;;
52590;SDS011;38483;42.620;25.394;2022-10-16T12:40:26;7.53;;;4.40;;
52590;SDS011;38483;42.620;25.394;2022-10-16T12:42:56;6.43;;;4.07;;
52590;SDS011;38483;42.620;25.394;2022-10-16T12:45:28;7.40;;;4.17;;
52590;SDS011;38483;42.620;25.394;2022-10-16T12:47:59;5.80;;;3.93;;
52590;SDS011;38483;42.620;25.394;2022-10-16T12:52:59;6.43;;;2.87;;
52590;SDS011;38483;42.620;25.394;2022-10-16T12:55:31;4.90;;;2.67;;
52590;SDS011;38483;42.620;25.394;2022-10-16T13:00:56;3.63;;;2.47;;
52590;SDS011;38483;42.620;25.394;2022-10-16T13:20:53;6.40;;;2.40;;
52590;SDS011;38483;42.620;25.394;2022-10-16T13:23:52;3.00;;;2.60;;
52590;SDS011;38483;42.620;25.394;2022-10-16T13:29:23;6.67;;;3.40;;
52590;SDS011;38483;42.620;25.394;2022-10-16T13:31:50;6.93;;;2.80;;
52590;SDS011;38483;42.620;25.394;2022-10-16T13:34:18;3.00;;;2.20;;
52590;SDS011;38483;42.620;25.394;2022-10-16T13:36:49;5.40;;;2.90;;
52590;SDS011;38483;42.620;25.394;2022-10-16T13:39:21;2.00;;;1.80;;
52590;SDS011;38483;42.620;25.394;2022-10-16T13:44:55;4.60;;;3.00;;
52590;SDS011;38483;42.620;25.394;2022-10-16T13:47:23;2.60;;;2.40;;
52590;SDS011;38483;42.620;25.394;2022-10-16T13:52:29;2.07;;;1.73;;
52590;SDS011;38483;42.620;25.394;2022-10-16T13:54:56;4.67;;;2.60;;
52590;SDS011;38483;42.620;25.394;2022-10-16T13:57:29;4.53;;;2.70;;
52590;SDS011;38483;42.620;25.394;2022-10-16T13:59:56;4.20;;;2.50;;
52590;SDS011;38483;42.620;25.394;2022-10-16T14:02:27;4.13;;;2.60;;
52590;SDS011;38483;42.620;25.394;2022-10-16T14:05:01;4.93;;;2.73;;
52590;SDS011;38483;42.620;25.394;2022-10-16T14:07:33;5.53;;;3.23;;
52590;SDS011;38483;42.620;25.394;2022-10-16T14:10:18;4.83;;;2.13;;
52590;SDS011;38483;42.620;25.394;2022-10-16T14:12:58;3.60;;;2.60;;
52590;SDS011;38483;42.620;25.394;2022-10-16T14:15:31;4.67;;;2.47;;
52590;SDS011;38483;42.620;25.394;2022-10-16T14:18:01;3.47;;;2.53;;
52590;SDS011;38483;42.620;25.394;2022-10-16T14:20:30;4.13;;;2.30;;
52590;SDS011;38483;42.620;25.394;2022-10-16T14:23:03;3.83;;;2.47;;
52590;SDS011;38483;42.620;25.394;2022-10-16T14:25:45;5.80;;;3.13;;
52590;SDS011;38483;42.620;25.394;2022-10-16T14:30:48;5.50;;;2.63;;
52590;SDS011;38483;42.620;25.394;2022-10-16T14:36:03;4.63;;;2.60;;
52590;SDS011;38483;42.620;25.394;2022-10-16T14:38:32;3.87;;;2.80;;
52590;SDS011;38483;42.620;25.394;2022-10-16T14:41:00;3.80;;;2.60;;
52590;SDS011;38483;42.620;25.394;2022-10-16T14:43:31;5.63;;;2.97;;
52590;SDS011;38483;42.620;25.394;2022-10-16T14:46:03;4.17;;;2.87;;
52590;SDS011;38483;42.620;25.394;2022-10-16T14:48:43;6.33;;;2.73;;
52590;SDS011;38483;42.620;25.394;2022-10-16T14:51:16;5.10;;;2.73;;
52590;SDS011;38483;42.620;25.394;2022-10-16T14:53:45;4.77;;;3.43;;
52590;SDS011;38483;42.620;25.394;2022-10-16T14:56:16;4.43;;;3.17;;
52590;SDS011;38483;42.620;25.394;2022-10-16T14:58:46;3.63;;;2.97;;
52590;SDS011;38483;42.620;25.394;2022-10-16T15:01:13;5.33;;;2.57;;
52590;SDS011;38483;42.620;25.394;2022-10-16T15:03:40;4.60;;;2.37;;
52590;SDS011;38483;42.620;25.394;2022-10-16T15:06:11;6.17;;;2.80;;
52590;SDS011;38483;42.620;25.394;2022-10-16T15:08:41;5.03;;;3.10;;
52590;SDS011;38483;42.620;25.394;2022-10-16T15:11:28;5.10;;;2.87;;
52590;SDS011;38483;42.620;25.394;2022-10-16T15:13:55;4.13;;;2.80;;
52590;SDS011;38483;42.620;25.394;2022-10-16T15:16:23;6.53;;;3.07;;
52590;SDS011;38483;42.620;25.394;2022-10-16T15:18:51;5.43;;;3.00;;
52590;SDS011;38483;42.620;25.394;2022-10-16T15:21:23;7.50;;;3.10;;
52590;SDS011;38483;42.620;25.394;2022-10-16T15:23:54;4.60;;;3.70;;
52590;SDS011;38483;42.620;25.394;2022-10-16T15:26:24;12.10;;;7.77;;
52590;SDS011;38483;42.620;25.394;2022-10-16T15:28:52;5.17;;;3.67;;
52590;SDS011;38483;42.620;25.394;2022-10-16T15:31:19;8.27;;;4.50;;
52590;SDS011;38483;42.620;25.394;2022-10-16T15:33:49;6.27;;;4.40;;
52590;SDS011;38483;42.620;25.394;2022-10-16T15:36:29;3.60;;;2.50;;
52590;SDS011;38483;42.620;25.394;2022-10-16T15:39:00;5.63;;;3.70;;
52590;SDS011;38483;42.620;25.394;2022-10-16T15:41:35;9.20;;;4.43;;
52590;SDS011;38483;42.620;25.394;2022-10-16T15:44:02;5.53;;;3.80;;
52590;SDS011;38483;42.620;25.394;2022-10-16T15:46:29;6.87;;;3.50;;
52590;SDS011;38483;42.620;25.394;2022-10-16T15:48:57;4.30;;;3.53;;
52590;SDS011;38483;42.620;25.394;2022-10-16T15:51:25;5.13;;;3.73;;
52590;SDS011;38483;42.620;25.394;2022-10-16T15:53:56;7.33;;;3.53;;
52590;SDS011;38483;42.620;25.394;2022-10-16T15:56:23;3.73;;;3.07;;
52590;SDS011;38483;42.620;25.394;2022-10-16T15:58:52;5.13;;;3.70;;
52590;SDS011;38483;42.620;25.394;2022-10-16T16:01:20;9.60;;;4.20;;
52590;SDS011;38483;42.620;25.394;2022-10-16T16:03:51;4.87;;;3.73;;
52590;SDS011;38483;42.620;25.394;2022-10-16T16:06:20;4.20;;;3.17;;
52590;SDS011;38483;42.620;25.394;2022-10-16T16:08:48;4.90;;;4.17;;
52590;SDS011;38483;42.620;25.394;2022-10-16T16:11:17;5.33;;;3.67;;
52590;SDS011;38483;42.620;25.394;2022-10-16T16:13:45;6.57;;;4.00;;
52590;SDS011;38483;42.620;25.394;2022-10-16T16:16:13;4.17;;;3.70;;
52590;SDS011;38483;42.620;25.394;2022-10-16T16:18:41;5.43;;;3.67;;
52590;SDS011;38483;42.620;25.394;2022-10-16T16:21:10;8.73;;;4.00;;
52590;SDS011;38483;42.620;25.394;2022-10-16T16:23:38;10.27;;;6.40;;
52590;SDS011;38483;42.620;25.394;2022-10-16T16:28:54;15.43;;;7.33;;
52590;SDS011;38483;42.620;25.394;2022-10-16T16:31:26;6.30;;;3.73;;
52590;SDS011;38483;42.620;25.394;2022-10-16T16:33:55;6.67;;;5.20;;
52590;SDS011;38483;42.620;25.394;2022-10-16T16:36:24;5.23;;;4.37;;
52590;SDS011;38483;42.620;25.394;2022-10-16T16:38:52;11.17;;;5.33;;
52590;SDS011;38483;42.620;25.394;2022-10-16T16:41:25;4.70;;;4.07;;
52590;SDS011;38483;42.620;25.394;2022-10-16T16:43:54;5.20;;;3.50;;
52590;SDS011;38483;42.620;25.394;2022-10-16T16:46:21;5.73;;;4.83;;
52590;SDS011;38483;42.620;25.394;2022-10-16T16:48:48;10.03;;;6.73;;
52590;SDS011;38483;42.620;25.394;2022-10-16T16:51:21;8.30;;;5.17;;
52590;SDS011;38483;42.620;25.394;2022-10-16T16:53:49;10.97;;;7.00;;
52590;SDS011;38483;42.620;25.394;2022-10-16T16:56:18;4.23;;;3.80;;
52590;SDS011;38483;42.620;25.394;2022-10-16T16:58:47;7.50;;;6.30;;
52590;SDS011;38483;42.620;25.394;2022-10-16T17:01:15;4.80;;;3.90;;
52590;SDS011;38483;42.620;25.394;2022-10-16T17:03:46;7.93;;;4.73;;
52590;SDS011;38483;42.620;25.394;2022-10-16T17:06:17;5.83;;;4.00;;
52590;SDS011;38483;42.620;25.394;2022-10-16T17:08:47;6.10;;;4.33;;
52590;SDS011;38483;42.620;25.394;2022-10-16T17:11:17;5.90;;;3.87;;
52590;SDS011;38483;42.620;25.394;2022-10-16T17:13:46;8.20;;;3.80;;
52590;SDS011;38483;42.620;25.394;2022-10-16T17:16:21;5.73;;;4.40;;
52590;SDS011;38483;42.620;25.394;2022-10-16T17:18:49;6.63;;;5.13;;
52590;SDS011;38483;42.620;25.394;2022-10-16T17:21:16;6.73;;;3.93;;
52590;SDS011;38483;42.620;25.394;2022-10-16T17:23:44;6.43;;;4.60;;
52590;SDS011;38483;42.620;25.394;2022-10-16T17:26:12;4.40;;;4.00;;
52590;SDS011;38483;42.620;25.394;2022-10-16T17:28:41;5.90;;;3.73;;
52590;SDS011;38483;42.620;25.394;2022-10-16T17:31:10;6.40;;;4.17;;
52590;SDS011;38483;42.620;25.394;2022-10-16T17:33:38;9.00;;;5.67;;